Time;durP1;ratioP1;P1;durP2;ratioP2;P2;SDS_P1;SDS_P2;PMS_P1;PMS_P2;Temp;Humidity;BMP_temperature;BMP_pressure;BME280_temperature;BME280_humidity;BME280_pressure;Samples;Min_cycle;Max_cycle;Signal;HPM_P1;HPM_P2
2021/01/01 00:00:52;;;;;;;22.90;15.23;;;25.10;92.90;;;;;;6056507;23;20003;-89
2021/01/01 00:03:19;;;;;;;20.30;15.00;;;25.00;92.70;;;;;;6055686;23;20006;-88
2021/01/01 00:05:59;;;;;;;13.65;11.10;;;25.00;93.00;;;;;;6055446;23;20004;-89
2021/01/01 00:08:25;;;;;;;14.07;9.60;;;24.90;93.10;;;;;;6052694;23;20022;-89
2021/01/01 00:10:52;;;;;;;19.08;11.23;;;24.90;93.30;;;;;;6053731;23;20007;-91
2021/01/01 00:13:28;;;;;;;14.18;9.80;;;24.80;93.10;;;;;;6032891;23;20007;-85
2021/01/01 00:16:47;;;;;;;;;;;;;;;;;;;;;
2021/01/01 00:19:40;;;;;;;23.55;14.88;;;24.80;93.30;;;;;;6056866;23;19996;-91
2021/01/01 00:22:13;;;;;;;15.27;12.50;;;24.90;93.10;;;;;;6015545;23;20023;-93
2021/01/01 00:24:41;;;;;;;11.95;9.38;;;24.90;93.00;;;;;;6056247;23;20039;-88
2021/01/01 00:27:20;;;;;;;9.90;7.68;;;24.90;93.00;;;;;;6060739;23;20043;-92
2021/01/01 00:32:25;;;;;;;9.75;6.53;;;24.70;93.20;;;;;;6074049;23;20018;-90
2021/01/01 00:34:52;;;;;;;16.60;11.73;;;24.70;93.40;;;;;;6058260;23;20085;-89
2021/01/01 00:37:22;;;;;;;16.70;10.40;;;24.70;93.20;;;;;;6060181;23;20035;-90
2021/01/01 00:39:51;;;;;;;23.00;14.95;;;24.70;93.20;;;;;;6061196;23;19995;-92
2021/01/01 00:42:21;;;;;;;14.10;10.15;;;24.70;93.00;;;;;;6063267;23;20010;-90
2021/01/01 00:44:51;;;;;;;10.80;7.27;;;24.70;93.10;;;;;;6081830;23;19995;-92
2021/01/01 00:47:19;;;;;;;12.23;7.65;;;24.70;92.70;;;;;;6088102;23;20234;-88
2021/01/01 00:49:52;;;;;;;10.25;7.55;;;24.70;92.70;;;;;;6063380;23;20027;-95
2021/01/01 00:52:19;;;;;;;9.52;7.20;;;24.70;92.70;;;;;;6084432;23;20061;-92
2021/01/01 00:55:26;;;;;;;23.98;16.65;;;24.70;92.80;;;;;;6060771;23;19998;-89
2021/01/01 00:57:56;;;;;;;26.30;19.92;;;24.70;92.40;;;;;;6083937;23;19999;-92
2021/01/01 01:00:22;;;;;;;18.13;14.13;;;24.80;92.50;;;;;;6059464;23;19991;-96
2021/01/01 01:02:49;;;;;;;12.63;8.68;;;24.70;92.40;;;;;;6057964;23;19999;-92
2021/01/01 01:05:16;;;;;;;5.53;4.93;;;24.70;92.10;;;;;;6032552;23;19999;-91
2021/01/01 01:07:50;;;;;;;6.45;4.63;;;24.80;92.20;;;;;;6061311;23;19999;-91
2021/01/01 01:10:23;;;;;;;7.38;5.25;;;24.80;91.90;;;;;;6057819;23;20003;-90
2021/01/01 01:12:50;;;;;;;6.20;5.00;;;24.70;91.60;;;;;;6057442;23;19995;-94
2021/01/01 01:15:16;;;;;;;7.93;5.15;;;24.70;91.80;;;;;;6058127;23;20236;-90
2021/01/01 01:17:43;;;;;;;8.98;5.70;;;24.70;91.70;;;;;;6084417;23;19995;-91
2021/01/01 01:20:10;;;;;;;14.73;8.70;;;24.80;91.90;;;;;;6059735;23;20014;-95
2021/01/01 01:22:40;;;;;;;13.88;9.30;;;24.70;92.00;;;;;;6060955;23;20006;-94
2021/01/01 01:25:16;;;;;;;11.00;7.53;;;24.70;91.80;;;;;;6087618;23;19999;-93
2021/01/01 01:27:46;;;;;;;11.80;9.30;;;24.70;91.80;;;;;;6055884;23;20007;-91
2021/01/01 01:30:34;;;;;;;11.65;7.13;;;24.70;91.70;;;;;;6054232;23;20063;-89
2021/01/01 01:36:46;;;;;;;11.88;6.30;;;24.70;91.70;;;;;;6059039;23;20316;-88
2021/01/01 01:39:18;;;;;;;96.50;65.70;;;24.80;92.00;;;;;;6056281;23;20015;-92
2021/01/01 01:41:48;;;;;;;129.70;36.30;;;24.80;92.10;;;;;;6059513;23;19983;-94
2021/01/01 01:47:24;;;;;;;154.38;49.38;;;24.80;92.30;;;;;;6028800;23;20011;-93
2021/01/01 01:57:28;;;;;;;29.33;19.25;;;24.60;93.00;;;;;;5978705;24;20023;-91
2021/01/01 02:11:51;;;;;;;12.38;7.32;;;24.60;93.00;;;;;;6043777;23;20017;-95
2021/01/01 02:14:36;;;;;;;11.02;6.05;;;24.50;93.00;;;;;;6082521;23;20007;-94
2021/01/01 02:17:54;;;;;;;9.23;6.13;;;24.50;93.00;;;;;;6037058;23;20023;-96
2021/01/01 02:20:21;;;;;;;6.60;4.85;;;24.50;92.90;;;;;;6013024;23;20051;-93
2021/01/01 02:23:05;;;;;;;4.72;3.95;;;24.50;92.90;;;;;;6009766;23;19996;-96
2021/01/01 02:25:33;;;;;;;5.45;3.60;;;24.40;93.00;;;;;;6009633;23;20004;-93
2021/01/01 02:28:19;;;;;;;7.32;4.05;;;24.30;92.90;;;;;;6008947;23;20015;-91
2021/01/01 02:30:47;;;;;;;4.53;3.10;;;24.40;92.90;;;;;;6011537;23;20015;-84
2021/01/01 02:36:42;;;;;;;8.75;7.53;;;24.40;92.30;;;;;;6036579;23;20080;-90
2021/01/01 02:39:21;;;;;;;8.90;6.55;;;24.30;92.40;;;;;;6032643;23;20019;-88
2021/01/01 02:42:19;;;;;;;10.13;7.07;;;24.30;92.50;;;;;;6036978;23;19999;-91
2021/01/01 02:47:39;;;;;;;9.45;6.78;;;24.20;92.60;;;;;;6100735;23;20019;-84
2021/01/01 02:50:17;;;;;;;9.25;6.63;;;24.20;92.60;;;;;;6023897;23;20027;-91
2021/01/01 03:07:01;;;;;;;13.93;9.73;;;24.10;92.30;;;;;;6086942;23;20055;-86
2021/01/01 03:15:50;;;;;;;16.48;11.48;;;23.90;92.10;;;;;;6049070;23;20029;-88
2021/01/01 03:18:28;;;;;;;15.93;11.40;;;23.90;92.10;;;;;;6092109;23;20010;-87
2021/01/01 03:21:19;;;;;;;23.52;12.60;;;23.90;92.20;;;;;;6031380;23;20020;-87
2021/01/01 03:39:17;;;;;;;20.08;13.10;;;24.00;91.90;;;;;;6076568;23;20026;-91
2021/01/01 03:41:50;;;;;;;19.77;13.65;;;24.10;91.80;;;;;;6099298;23;20010;-87
2021/01/01 03:44:27;;;;;;;19.20;12.60;;;24.10;91.70;;;;;;6117818;23;20006;-87
2021/01/01 03:46:55;;;;;;;18.55;11.57;;;24.10;91.60;;;;;;6116133;23;19994;-90
2021/01/01 03:49:24;;;;;;;18.55;12.95;;;24.00;91.50;;;;;;6092966;23;19986;-85
2021/01/01 03:51:52;;;;;;;17.15;11.02;;;24.10;91.90;;;;;;6092084;23;20021;-89
2021/01/01 03:54:31;;;;;;;25.90;17.40;;;24.00;91.60;;;;;;6097004;23;19998;-92
2021/01/01 03:56:58;;;;;;;31.10;21.10;;;24.00;91.70;;;;;;6123284;23;20044;-94
2021/01/01 03:59:31;;;;;;;30.30;19.83;;;24.00;91.70;;;;;;6095169;23;20022;-92
2021/01/01 04:01:58;;;;;;;;;;;24.10;91.90;;;;;;6099253;23;20035;-91
2021/01/01 04:04:35;;;;;;;26.00;20.08;;;24.10;92.20;;;;;;6098334;23;19889;-91
2021/01/01 04:07:03;;;;;;;24.15;16.55;;;24.00;91.70;;;;;;6097573;23;20037;-90
2021/01/01 04:09:31;;;;;;;22.27;17.08;;;23.90;92.00;;;;;;6123133;23;19994;-93
2021/01/01 04:11:58;;;;;;;23.42;16.45;;;23.90;92.40;;;;;;6095512;23;20002;-89
2021/01/01 04:14:26;;;;;;;21.20;15.52;;;23.90;92.50;;;;;;6098159;23;19994;-90
2021/01/01 04:16:59;;;;;;;19.95;16.20;;;23.80;92.70;;;;;;6096758;23;20147;-89
2021/01/01 04:19:43;;;;;;;27.30;19.52;;;23.80;92.90;;;;;;6120982;23;20013;-89
2021/01/01 04:22:38;;;;;;;30.40;23.25;;;23.80;92.70;;;;;;6095949;23;19998;-89
2021/01/01 04:25:05;;;;;;;32.42;22.80;;;23.80;93.00;;;;;;6010432;23;20007;-89
2021/01/01 04:27:32;;;;;;;39.67;23.15;;;23.80;92.90;;;;;;6033707;23;20024;-89
2021/01/01 04:29:58;;;;;;;30.75;22.17;;;23.80;93.30;;;;;;6033167;23;20007;-90
2021/01/01 04:32:27;;;;;;;30.38;19.75;;;23.80;93.20;;;;;;6037132;23;20000;-88
2021/01/01 04:34:58;;;;;;;26.52;18.08;;;23.70;93.00;;;;;;6037228;23;20012;-88
2021/01/01 04:37:24;;;;;;;19.20;14.68;;;23.70;93.30;;;;;;6035593;23;20003;-89
2021/01/01 04:39:51;;;;;;;20.35;13.80;;;23.70;93.00;;;;;;6034510;23;20016;-90
2021/01/01 04:42:19;;;;;;;26.27;18.83;;;23.70;93.00;;;;;;6036761;23;20035;-89
2021/01/01 04:44:54;;;;;;;19.27;12.82;;;23.70;93.30;;;;;;6037409;23;20023;-92
2021/01/01 04:47:29;;;;;;;17.65;12.55;;;23.60;93.00;;;;;;6035880;23;19992;-89
2021/01/01 04:49:58;;;;;;;21.23;13.35;;;23.70;93.10;;;;;;6034874;23;19999;-90
2021/01/01 04:52:32;;;;;;;18.95;14.13;;;23.70;92.50;;;;;;6036471;23;20026;-93
2021/01/01 04:55:05;;;;;;;15.95;12.82;;;23.70;93.00;;;;;;6010875;23;20028;-92
2021/01/01 04:57:33;;;;;;;17.90;12.38;;;23.70;92.90;;;;;;6062929;23;20027;-90
2021/01/01 05:00:00;;;;;;;19.23;14.05;;;23.80;92.50;;;;;;6059443;23;20008;-91
2021/01/01 05:02:29;;;;;;;21.30;15.30;;;23.80;92.50;;;;;;6062088;23;20022;-88
2021/01/01 05:04:58;;;;;;;27.92;17.80;;;23.70;92.20;;;;;;6058681;23;19999;-90
2021/01/01 05:07:37;;;;;;;50.70;38.72;;;23.70;92.20;;;;;;6061358;23;19999;-93
2021/01/01 05:13:28;;;;;;;95.60;62.45;;;23.70;92.00;;;;;;6064429;23;20010;-91
2021/01/01 05:15:57;;;;;;;99.80;64.13;;;23.70;92.00;;;;;;6061897;23;20012;-90
2021/01/01 05:18:35;;;;;;;58.03;35.97;;;23.70;91.60;;;;;;6063821;23;20034;-91
2021/01/01 05:21:09;;;;;;;29.05;18.35;;;23.60;91.60;;;;;;6063528;23;20011;-90
2021/01/01 05:23:41;;;;;;;30.95;18.40;;;23.60;91.40;;;;;;6040591;23;20023;-89
2021/01/01 05:26:16;;;;;;;22.40;16.20;;;23.60;91.50;;;;;;6093274;23;20042;-89
2021/01/01 05:29:19;;;;;;;26.30;19.00;;;23.50;91.40;;;;;;6071741;23;20018;-93
2021/01/01 05:32:01;;;;;;;20.52;14.65;;;23.50;91.50;;;;;;6070647;23;20011;-88
2021/01/01 05:34:53;;;;;;;16.17;9.82;;;23.40;91.60;;;;;;6092388;23;20002;-90
2021/01/01 05:37:35;;;;;;;15.48;10.38;;;23.40;91.60;;;;;;6085409;23;20018;-90
2021/01/01 05:40:29;;;;;;;16.20;11.80;;;23.30;92.00;;;;;;6065511;23;20014;-92
2021/01/01 05:42:56;;;;;;;15.88;9.35;;;23.30;92.00;;;;;;6069769;23;20003;-91
2021/01/01 05:45:27;;;;;;;17.65;10.57;;;23.20;92.30;;;;;;6041206;23;20016;-89
2021/01/01 05:48:06;;;;;;;20.80;12.35;;;23.20;92.30;;;;;;6065907;23;20008;-91
2021/01/01 05:50:38;;;;;;;25.50;16.90;;;23.10;92.20;;;;;;6068581;23;20007;-91
2021/01/01 05:53:22;;;;;;;21.02;12.63;;;23.10;92.20;;;;;;6044755;23;19999;-90
2021/01/01 05:56:26;;;;;;;38.08;24.38;;;23.00;92.20;;;;;;6068227;23;20032;-88
2021/01/01 05:59:08;;;;;;;25.55;17.23;;;23.00;92.30;;;;;;6068649;23;20002;-89
2021/01/01 06:01:39;;;;;;;27.48;16.60;;;23.00;92.50;;;;;;6067490;23;20031;-87
2021/01/01 06:04:11;;;;;;;24.85;14.85;;;23.00;92.90;;;;;;6065529;23;20048;-85
2021/01/01 06:06:43;;;;;;;25.85;14.65;;;23.00;92.50;;;;;;6065951;23;20007;-88
2021/01/01 06:09:11;;;;;;;20.58;13.20;;;23.00;92.50;;;;;;6045542;23;20000;-88
2021/01/01 06:11:43;;;;;;;22.35;13.57;;;22.90;92.70;;;;;;6067687;23;20015;-87
2021/01/01 06:14:15;;;;;;;20.92;12.95;;;22.80;92.80;;;;;;6062247;23;19999;-87
2021/01/01 06:17:16;;;;;;;16.83;12.07;;;22.90;92.90;;;;;;6044471;23;20004;-90
2021/01/01 06:19:57;;;;;;;17.00;11.05;;;22.80;93.20;;;;;;6063346;23;20023;-89
2021/01/01 06:22:28;;;;;;;11.38;8.23;;;22.80;93.10;;;;;;6067631;23;20004;-86
2021/01/01 08:36:03;;;;;;;10.43;5.15;;;21.50;97.00;;;;;;5037081;27;3768044;-89
2021/01/01 08:38:34;;;;;;;7.97;3.17;;;21.90;95.30;;;;;;5140792;28;20133;-90
2021/01/01 08:41:03;;;;;;;4.30;2.40;;;22.00;95.50;;;;;;5142337;27;20091;-90
2021/01/01 08:43:39;;;;;;;4.65;2.15;;;22.10;94.80;;;;;;5124427;27;20058;-90
2021/01/01 08:46:17;;;;;;;4.32;1.58;;;22.20;94.50;;;;;;5120725;28;20020;-90
2021/01/01 08:48:44;;;;;;;3.00;1.85;;;22.20;94.20;;;;;;5115972;28;20016;-89
2021/01/01 08:51:12;;;;;;;4.90;1.73;;;22.30;94.10;;;;;;5120199;28;20020;-90
2021/01/01 08:53:40;;;;;;;4.65;3.00;;;22.30;94.10;;;;;;5102823;28;20081;-89
2021/01/01 08:56:08;;;;;;;5.90;2.13;;;22.40;94.10;;;;;;5119793;28;20023;-91
2021/01/01 08:58:35;;;;;;;2.05;1.42;;;22.30;94.00;;;;;;5120429;28;20020;-89
2021/01/01 09:01:18;;;;;;;2.65;2.15;;;22.30;94.00;;;;;;5119525;28;20016;-87
2021/01/01 09:03:44;;;;;;;;;;;22.40;93.80;;;;;;5120515;28;20030;-89
2021/01/01 09:06:20;;;;;;;3.83;2.15;;;22.30;93.90;;;;;;5120208;28;19904;-89
2021/01/01 09:08:47;;;;;;;3.55;2.13;;;22.40;93.70;;;;;;5119634;28;20335;-89
2021/01/01 09:11:23;;;;;;;3.40;2.20;;;22.30;93.70;;;;;;5119366;28;20020;-88
2021/01/01 09:14:04;;;;;;;2.90;1.80;;;22.30;93.90;;;;;;5121057;28;20035;-89
2021/01/01 09:16:32;;;;;;;6.32;2.33;;;22.30;93.80;;;;;;5119306;28;20012;-89
2021/01/01 09:19:11;;;;;;;5.25;2.72;;;22.40;93.90;;;;;;5119085;28;20066;-88
2021/01/01 09:21:38;;;;;;;5.07;1.95;;;22.30;94.10;;;;;;5119165;28;20023;-89
2021/01/01 09:24:05;;;;;;;2.47;2.15;;;22.30;93.90;;;;;;5119292;28;20031;-89
2021/01/01 09:26:37;;;;;;;3.28;2.20;;;22.20;94.10;;;;;;5119994;28;20024;-89
2021/01/01 09:29:09;;;;;;;4.00;2.22;;;22.30;94.10;;;;;;5119721;28;20024;-89
2021/01/01 09:31:37;;;;;;;3.22;1.92;;;22.30;94.00;;;;;;5118967;28;20020;-89
2021/01/01 09:34:07;;;;;;;5.07;2.22;;;22.30;93.90;;;;;;5119399;27;20040;-88
2021/01/01 09:36:36;;;;;;;3.33;2.25;;;22.30;93.90;;;;;;5110430;28;20325;-88
2021/01/01 09:39:11;;;;;;;4.22;2.50;;;22.30;93.80;;;;;;5092563;28;20028;-89
2021/01/01 09:41:48;;;;;;;3.60;2.55;;;22.40;93.90;;;;;;5127272;28;20015;-88
2021/01/01 09:44:16;;;;;;;3.25;2.25;;;22.40;93.90;;;;;;5127344;28;20031;-89
2021/01/01 09:46:46;;;;;;;5.00;2.65;;;22.40;93.40;;;;;;5108187;28;20203;-88
2021/01/01 09:49:15;;;;;;;4.32;2.45;;;22.30;93.50;;;;;;5108598;28;20386;-90
2021/01/01 09:51:42;;;;;;;5.18;2.10;;;22.30;93.80;;;;;;5091058;28;20035;-89
2021/01/01 09:54:09;;;;;;;2.70;2.15;;;22.40;93.60;;;;;;5108617;28;20030;-89
2021/01/01 09:56:39;;;;;;;8.15;3.60;;;22.40;93.70;;;;;;5093625;28;20324;-90
2021/01/01 09:59:08;;;;;;;9.27;4.57;;;22.40;93.70;;;;;;5126775;28;20031;-88
2021/01/01 10:01:35;;;;;;;12.15;5.15;;;22.40;93.80;;;;;;5126323;28;20068;-89
2021/01/01 10:04:08;;;;;;;4.05;2.90;;;22.40;93.60;;;;;;5107880;28;20331;-90
2021/01/01 10:06:35;;;;;;;3.63;2.40;;;22.40;93.70;;;;;;5108606;28;20058;-89
2021/01/01 10:09:10;;;;;;;3.92;2.03;;;22.40;93.70;;;;;;5108799;28;20028;-90
2021/01/01 10:11:37;;;;;;;3.33;1.88;;;22.40;93.50;;;;;;5108620;28;20016;-88
2021/01/01 10:14:03;;;;;;;3.03;1.98;;;22.50;93.30;;;;;;5126171;28;20027;-88
2021/01/01 10:16:39;;;;;;;7.13;3.08;;;22.40;93.40;;;;;;5107930;28;20015;-89
2021/01/01 10:19:05;;;;;;;3.85;2.72;;;22.50;93.50;;;;;;5108453;28;20099;-89
2021/01/01 10:21:32;;;;;;;3.08;2.20;;;22.50;93.40;;;;;;5108009;28;20012;-89
2021/01/01 10:23:59;;;;;;;4.70;2.72;;;22.50;93.10;;;;;;5108042;28;20028;-89
2021/01/01 10:26:27;;;;;;;3.58;2.63;;;22.50;93.00;;;;;;5107910;28;20016;-90
2021/01/01 10:28:55;;;;;;;4.00;2.83;;;22.60;92.90;;;;;;5108271;28;20245;-89
2021/01/01 10:31:45;;;;;;;5.25;3.28;;;22.60;93.10;;;;;;5107829;28;20091;-90
2021/01/01 10:34:12;;;;;;;5.43;3.50;;;22.60;93.00;;;;;;5126422;28;20212;-89
2021/01/01 10:36:42;;;;;;;5.60;3.88;;;22.60;92.80;;;;;;5108340;28;20099;-90
2021/01/01 10:39:09;;;;;;;5.50;2.90;;;22.60;93.00;;;;;;5108232;28;20030;-90
2021/01/01 10:41:37;;;;;;;5.50;2.50;;;22.60;92.90;;;;;;5107261;28;20046;-90
2021/01/01 10:44:08;;;;;;;3.08;2.45;;;22.60;92.90;;;;;;5091541;28;20051;-93
2021/01/01 10:46:37;;;;;;;6.35;2.60;;;22.60;92.90;;;;;;5123708;28;20061;-90
2021/01/01 10:49:06;;;;;;;8.60;3.15;;;22.70;92.70;;;;;;5107243;28;20027;-90
2021/01/01 10:51:41;;;;;;;4.55;2.70;;;22.70;92.40;;;;;;5126034;28;20050;-89
2021/01/01 10:54:08;;;;;;;5.75;3.20;;;22.70;92.20;;;;;;5108132;28;20053;-93
2021/01/01 10:56:55;;;;;;;5.32;3.40;;;22.70;92.40;;;;;;5107494;28;20039;-92
2021/01/01 10:59:23;;;;;;;4.68;3.60;;;22.70;92.40;;;;;;5093799;28;20032;-90
2021/01/01 11:02:00;;;;;;;4.30;3.08;;;22.70;92.20;;;;;;5107108;28;20015;-90
2021/01/01 11:04:33;;;;;;;5.25;3.70;;;22.70;92.20;;;;;;5122309;28;20031;-90
2021/01/01 11:07:00;;;;;;;6.68;4.05;;;22.60;92.20;;;;;;5107444;28;20145;-92
2021/01/01 11:09:29;;;;;;;9.07;3.88;;;22.60;92.20;;;;;;5107913;28;20032;-92
2021/01/01 11:11:58;;;;;;;3.00;2.20;;;22.60;92.30;;;;;;5125340;28;20400;-89
2021/01/01 12:20:21;;;;;;;5.13;2.05;;;25.10;84.60;;;;;;5069100;28;20328;-91
2021/01/01 12:25:31;;;;;;;2.80;2.08;;;25.80;82.80;;;;;;5091717;28;20049;-92
2021/01/01 12:28:03;;;;;;;2.42;1.92;;;25.90;81.90;;;;;;5078269;28;20021;-91
2021/01/01 12:30:31;;;;;;;3.40;2.38;;;26.10;81.80;;;;;;5076422;28;20036;-91
2021/01/01 12:33:04;;;;;;;6.75;1.77;;;26.30;80.10;;;;;;5091212;28;20020;-91
2021/01/01 12:35:32;;;;;;;4.90;2.10;;;26.50;78.90;;;;;;5075079;28;20040;-91
2021/01/01 12:41:01;;;;;;;3.03;1.60;;;27.00;78.50;;;;;;5090065;23;20073;-89
2021/01/01 12:43:53;;;;;;;2.28;1.35;;;27.10;78.00;;;;;;5056813;28;20041;-91
2021/01/01 12:46:21;;;;;;;2.10;1.55;;;27.20;76.40;;;;;;5025892;28;20126;-93
2021/01/01 12:48:48;;;;;;;4.07;1.95;;;27.20;74.90;;;;;;5056929;28;20021;-93
2021/01/01 12:51:26;;;;;;;6.68;1.88;;;27.30;76.50;;;;;;5040058;28;20044;-93
2021/01/01 12:53:56;;;;;;;5.70;1.90;;;27.60;76.30;;;;;;5141119;23;20041;-92
2021/01/01 12:56:23;;;;;;;2.97;1.73;;;27.50;77.90;;;;;;5036469;28;20041;-93
2021/01/01 12:59:01;;;;;;;4.50;2.33;;;27.50;78.60;;;;;;5313891;23;20053;-96
2021/01/01 13:01:30;;;;;;;2.13;1.75;;;27.30;79.20;;;;;;5663713;23;20044;-92
2021/01/01 13:07:44;;;;;;;18.63;2.50;;;27.20;82.10;;;;;;5856500;23;20890;31
2021/01/01 13:30:51;;;;;;;4.43;2.13;;;27.60;77.90;;;;;;4976221;29;20108;-95
2021/01/01 13:33:46;;;;;;;4.90;2.53;;;27.80;76.50;;;;;;4886557;29;20036;-96
2021/01/01 13:37:08;;;;;;;4.10;2.58;;;28.00;74.80;;;;;;4919048;29;20109;-96
2021/01/01 13:46:37;;;;;;;5.50;3.50;;;28.50;73.50;;;;;;4993180;28;20058;-96
2021/01/01 13:49:11;;;;;;;6.70;2.80;;;28.90;71.40;;;;;;4977261;28;20034;-96
2021/01/01 13:51:42;;;;;;;7.57;3.67;;;28.80;71.60;;;;;;4977626;28;20050;-96
2021/01/01 13:54:14;;;;;;;7.95;3.70;;;29.30;71.70;;;;;;4975869;28;20106;-95
2021/01/01 13:56:59;;;;;;;;;;;29.40;70.50;;;;;;4981804;28;20011;-95
2021/01/01 14:02:28;;;;;;;7.10;4.78;;;30.00;70.90;;;;;;5417866;23;20058;-91
2021/01/01 14:05:16;;;;;;;3.67;2.53;;;30.20;72.50;;;;;;4999984;28;20027;-90
2021/01/01 14:07:49;;;;;;;4.28;3.20;;;30.00;68.80;;;;;;4997959;28;20041;-89
2021/01/01 14:10:19;;;;;;;4.45;2.97;;;30.20;71.10;;;;;;5015269;28;20050;-89
2021/01/01 14:12:46;;;;;;;3.97;2.40;;;30.40;69.10;;;;;;4998008;28;20022;-93
2021/01/01 14:15:28;;;;;;;5.05;3.00;;;30.20;70.10;;;;;;4990573;28;20026;-93
2021/01/01 14:18:00;;;;;;;3.70;3.10;;;30.50;70.50;;;;;;4990667;28;20026;-91
2021/01/01 14:20:27;;;;;;;3.25;2.33;;;30.90;70.30;;;;;;4989228;28;20298;-91
2021/01/01 14:22:53;;;;;;;4.53;2.50;;;31.00;67.50;;;;;;4989506;28;20057;-91
2021/01/01 14:25:20;;;;;;;4.43;2.40;;;30.40;69.10;;;;;;4996112;28;20362;-91
2021/01/01 14:28:08;;;;;;;3.13;2.58;;;31.20;72.10;;;;;;4971830;28;20031;-94
2021/01/01 14:30:42;;;;;;;3.67;2.83;;;30.10;72.20;;;;;;4971468;28;20023;-92
2021/01/01 14:33:11;;;;;;;4.60;2.38;;;29.70;73.50;;;;;;4971041;28;20031;-91
2021/01/01 14:35:41;;;;;;;3.85;2.88;;;29.60;72.60;;;;;;4975599;28;20045;-92
2021/01/01 14:38:14;;;;;;;4.07;2.85;;;29.60;73.30;;;;;;4976742;28;20022;-93
2021/01/01 14:40:41;;;;;;;4.55;3.03;;;29.90;74.10;;;;;;4973917;28;20026;-92
2021/01/01 14:43:07;;;;;;;3.33;2.80;;;30.30;71.70;;;;;;4975303;28;20041;-94
2021/01/01 14:45:34;;;;;;;5.45;2.63;;;30.80;72.50;;;;;;4975267;28;20029;-91
2021/01/01 14:48:06;;;;;;;3.15;2.50;;;31.00;68.30;;;;;;4975413;28;20022;-90
2021/01/01 14:50:36;;;;;;;5.35;3.30;;;30.50;71.80;;;;;;4973302;28;20022;-94
2021/01/01 14:53:18;;;;;;;3.97;2.75;;;30.20;71.80;;;;;;4957810;28;20030;-94
2021/01/01 14:56:01;;;;;;;5.70;2.78;;;30.10;73.20;;;;;;4979540;28;20035;-94
2021/01/01 14:59:16;;;;;;;4.47;2.47;;;30.80;72.90;;;;;;4945194;29;20028;-92
2021/01/01 15:04:41;;;;;;;3.65;2.58;;;31.60;69.40;;;;;;4992342;28;20217;-92
2021/01/01 15:07:12;;;;;;;4.05;3.00;;;31.50;71.00;;;;;;4957777;28;20129;-92
2021/01/01 15:10:07;;;;;;;2.95;2.53;;;31.50;70.60;;;;;;4966497;28;20089;-91
2021/01/01 15:12:38;;;;;;;3.38;2.17;;;31.60;69.80;;;;;;4989272;28;20307;-94
2021/01/01 15:15:20;;;;;;;3.17;2.40;;;31.30;69.00;;;;;;4973030;28;20034;-90
2021/01/01 15:17:53;;;;;;;2.50;1.75;;;31.50;70.10;;;;;;4973088;28;20029;-92
2021/01/01 15:21:05;;;;;;;4.38;3.33;;;31.70;68.80;;;;;;4990666;28;20022;-96
2021/01/01 15:24:00;;;;;;;4.80;2.78;;;31.50;68.30;;;;;;4937290;29;20035;-95
2021/01/01 15:26:31;;;;;;;4.70;2.85;;;31.20;68.70;;;;;;4934802;29;20079;-93
2021/01/01 15:29:03;;;;;;;5.90;3.97;;;31.40;68.90;;;;;;4935553;29;20102;-94
2021/01/01 15:31:30;;;;;;;3.10;2.40;;;31.80;69.50;;;;;;4933129;29;20032;-91
2021/01/01 15:33:57;;;;;;;2.83;2.10;;;32.20;68.10;;;;;;4932207;29;20042;-94
2021/01/01 15:36:24;;;;;;;2.53;1.90;;;32.00;65.70;;;;;;4933707;29;20091;-91
2021/01/01 15:39:28;;;;;;;5.85;2.60;;;31.90;66.00;;;;;;4935140;29;20074;-92
2021/01/01 15:42:05;;;;;;;6.72;2.35;;;31.90;67.60;;;;;;4914861;29;20032;-95
2021/01/01 15:48:43;;;;;;;3.67;2.45;;;31.90;68.30;;;;;;4938251;29;20020;-91
2021/01/01 15:51:21;;;;;;;5.85;2.80;;;32.00;65.50;;;;;;4929549;29;20027;-91
2021/01/01 15:53:57;;;;;;;3.55;2.15;;;31.70;69.00;;;;;;4933663;29;20055;-96
2021/01/01 15:57:04;;;;;;;5.45;1.90;;;31.90;67.90;;;;;;4933717;29;20072;-94
2021/01/01 15:59:33;;;;;;;2.63;2.08;;;32.60;67.20;;;;;;4914047;29;20118;-92
2021/01/01 16:02:03;;;;;;;4.03;2.40;;;32.20;64.70;;;;;;4949266;29;20019;-93
2021/01/01 16:04:29;;;;;;;2.70;2.30;;;31.90;67.20;;;;;;4933884;29;20315;-93
2021/01/01 16:06:56;;;;;;;2.28;1.80;;;32.30;67.10;;;;;;4934378;29;20053;-92
2021/01/01 16:09:23;;;;;;;2.70;1.98;;;32.00;65.50;;;;;;4934788;29;20024;-93
2021/01/01 16:11:49;;;;;;;2.88;2.10;;;31.80;65.50;;;;;;4935959;29;20047;-90
2021/01/01 16:14:16;;;;;;;3.95;1.63;;;31.40;65.80;;;;;;4981884;28;20055;-93
2021/01/01 16:16:44;;;;;;;4.65;1.30;;;31.10;68.60;;;;;;4974842;28;20083;-94
2021/01/01 16:19:16;;;;;;;3.33;1.35;;;31.20;67.20;;;;;;4975897;28;20033;-95
2021/01/01 16:21:46;;;;;;;2.25;1.65;;;31.90;65.60;;;;;;4975451;28;20027;-94
2021/01/01 16:24:18;;;;;;;1.88;1.50;;;31.80;66.40;;;;;;4976046;28;20023;-92
2021/01/01 16:26:49;;;;;;;3.75;2.30;;;32.50;66.60;;;;;;4974075;28;20027;-94
2021/01/01 16:29:18;;;;;;;4.28;2.95;;;32.60;64.80;;;;;;4975486;28;20027;-93
2021/01/01 16:31:50;;;;;;;4.15;1.85;;;32.50;65.30;;;;;;4994162;28;20023;-94
2021/01/01 16:34:20;;;;;;;2.55;1.92;;;32.10;65.00;;;;;;4979140;28;20042;-93
2021/01/01 16:37:06;;;;;;;3.63;1.95;;;31.60;66.50;;;;;;4977448;28;20046;-95
2021/01/01 16:39:33;;;;;;;3.90;2.17;;;30.90;68.70;;;;;;4990567;28;20022;-95
2021/01/01 16:42:03;;;;;;;3.33;1.80;;;30.80;68.00;;;;;;4973536;29;20055;-94
2021/01/01 16:44:53;;;;;;;2.80;2.00;;;30.50;69.20;;;;;;4955372;29;20067;-92
2021/01/01 16:48:07;;;;;;;2.55;1.48;;;30.40;70.00;;;;;;4959276;29;20039;-94
2021/01/01 16:50:38;;;;;;;3.05;1.73;;;30.50;69.90;;;;;;4946328;29;20062;-94
2021/01/01 16:53:11;;;;;;;1.90;1.48;;;30.70;68.10;;;;;;4957682;29;20031;-95
2021/01/01 16:55:43;;;;;;;2.08;1.50;;;30.70;68.60;;;;;;4957594;29;20114;-94
2021/01/01 16:58:42;;;;;;;;;;;;;;;;;;;;;
2021/01/01 17:01:09;;;;;;;4.43;1.92;;;30.30;69.90;;;;;;4933274;29;20079;-92
2021/01/01 17:04:10;;;;;;;4.38;2.80;;;30.20;69.80;;;;;;4918244;29;20040;-95
2021/01/01 17:11:07;;;;;;;3.30;2.13;;;31.30;66.10;;;;;;4883776;29;20033;-93
2021/01/01 17:22:50;;;;;;;2.28;1.50;;;33.00;61.40;;;;;;5232276;23;20061;-94
2021/01/01 17:28:21;;;;;;;3.22;1.45;;;33.80;58.30;;;;;;5357167;23;20050;-95
2021/01/01 17:30:50;;;;;;;6.55;3.13;;;33.70;60.20;;;;;;4992118;28;20069;-94
2021/01/01 17:33:22;;;;;;;5.03;3.13;;;33.80;61.70;;;;;;5005115;28;20046;-95
2021/01/01 17:38:34;;;;;;;2.72;1.58;;;33.80;60.70;;;;;;4657673;26;20263;-94
2021/01/01 17:41:29;;;;;;;3.58;1.63;;;32.90;60.70;;;;;;4961701;28;20031;-96
2021/01/01 17:44:01;;;;;;;2.33;1.80;;;32.30;64.30;;;;;;4962461;29;20011;-95
2021/01/01 17:46:35;;;;;;;2.67;1.70;;;31.90;64.80;;;;;;4976862;29;20027;-96
2021/01/01 17:49:07;;;;;;;6.32;4.18;;;32.60;62.80;;;;;;4958698;29;20019;-92
2021/01/01 17:51:42;;;;;;;4.20;1.90;;;32.80;62.50;;;;;;4958748;29;20027;-95
2021/01/01 17:54:09;;;;;;;8.30;1.60;;;33.50;60.80;;;;;;4959048;29;20031;-93
2021/01/01 17:56:39;;;;;;;1.67;1.23;;;33.80;61.70;;;;;;4956921;29;20027;-94
2021/01/01 17:59:11;;;;;;;2.30;1.50;;;33.70;57.40;;;;;;4959034;29;20050;-93
2021/01/01 18:01:38;;;;;;;2.17;1.90;;;33.80;58.40;;;;;;4956868;29;20366;-94
2021/01/01 18:07:31;;;;;;;2.05;1.73;;;33.10;60.90;;;;;;4976571;28;20084;-95
2021/01/01 18:10:00;;;;;;;5.35;3.15;;;32.60;63.20;;;;;;4958426;29;20023;-94
2021/01/01 18:12:29;;;;;;;4.80;2.97;;;32.30;61.50;;;;;;4973780;29;20027;-93
2021/01/01 18:14:59;;;;;;;2.83;2.20;;;32.00;63.20;;;;;;4973466;29;20054;-93
2021/01/01 18:17:37;;;;;;;4.45;2.60;;;32.00;61.60;;;;;;4959085;29;20019;-95
2021/01/01 18:20:06;;;;;;;8.05;3.65;;;32.60;63.80;;;;;;4973572;29;20074;-92
2021/01/01 18:22:45;;;;;;;3.17;2.25;;;32.80;59.90;;;;;;4955296;29;20025;-94
2021/01/01 18:25:17;;;;;;;4.55;2.00;;;32.80;61.00;;;;;;4940381;29;20035;-93
2021/01/01 18:28:02;;;;;;;2.65;1.70;;;32.90;61.20;;;;;;4957710;29;20091;-94
2021/01/01 18:30:33;;;;;;;53.83;34.30;;;33.00;62.70;;;;;;4957962;29;20061;-93
2021/01/01 18:32:59;;;;;;;10.63;6.18;;;33.30;60.40;;;;;;4956952;29;20058;-91
2021/01/01 18:35:27;;;;;;;4.60;2.25;;;33.70;59.60;;;;;;4973930;29;20027;-92
2021/01/01 18:38:04;;;;;;;3.05;1.60;;;34.00;58.40;;;;;;4967449;28;20212;-92
2021/01/01 18:40:41;;;;;;;1.75;1.30;;;34.00;58.90;;;;;;4978416;28;20058;-93
2021/01/01 18:43:11;;;;;;;2.63;1.30;;;33.70;57.70;;;;;;4956415;29;20071;-93
2021/01/01 18:45:41;;;;;;;1.65;1.42;;;33.60;58.60;;;;;;4956718;29;20027;-91
2021/01/01 18:48:11;;;;;;;2.70;1.80;;;33.70;58.40;;;;;;4957121;29;20036;-92
2021/01/01 18:50:51;;;;;;;1.58;1.17;;;33.80;56.90;;;;;;4957360;29;20019;-91
2021/01/01 18:53:25;;;;;;;4.15;1.30;;;34.00;55.80;;;;;;4940392;29;20031;-93
2021/01/01 18:55:55;;;;;;;2.28;1.63;;;33.60;57.10;;;;;;4941729;29;20023;-94
2021/01/01 18:58:30;;;;;;;4.53;2.50;;;33.50;57.50;;;;;;4957470;29;20061;-96